createdAt,value
2023-04-02T00:02:32.431Z,45.63
2023-04-02T00:05:28.060Z,46.06
2023-04-02T00:07:55.294Z,45.49
2023-04-02T00:10:29.160Z,46.86
2023-04-02T00:13:01.485Z,46.13
2023-04-02T00:15:29.278Z,45.88
2023-04-02T00:17:57.119Z,45.74
2023-04-02T00:20:28.554Z,45.89
2023-04-02T00:22:56.409Z,45.95
2023-04-02T00:25:27.704Z,46.50
2023-04-02T00:27:55.102Z,45.64
2023-04-02T00:30:23.295Z,60.93
2023-04-02T00:32:52.472Z,52.67
2023-04-02T00:35:27.600Z,52.74
2023-04-02T00:37:56.773Z,50.30
2023-04-02T00:40:28.077Z,48.21
2023-04-02T00:43:00.092Z,50.18
2023-04-02T00:45:31.336Z,47.86
2023-04-02T00:48:13.527Z,46.12
2023-04-02T00:50:46.178Z,44.69
2023-04-02T00:53:24.198Z,43.97
2023-04-02T00:55:52.421Z,44.06
2023-04-02T00:58:27.751Z,42.23
2023-04-02T01:00:55.137Z,41.91
2023-04-02T01:03:32.361Z,41.93
2023-04-02T01:06:05.836Z,42.24
2023-04-02T01:08:51.536Z,42.29
2023-04-02T01:11:49.675Z,41.81
2023-04-02T01:14:28.746Z,40.56
2023-04-02T01:17:11.898Z,40.72
2023-04-02T01:20:16.880Z,40.77
2023-04-02T01:22:57.393Z,40.70
2023-04-02T01:25:35.715Z,40.54
2023-04-02T01:28:13.153Z,39.86
2023-04-02T01:30:49.431Z,39.83
2023-04-02T01:33:17.331Z,39.51
2023-04-02T01:35:55.809Z,39.77
2023-04-02T01:38:34.139Z,40.12
2023-04-02T01:41:12.111Z,40.12
2023-04-02T01:43:48.272Z,40.20
2023-04-02T01:46:29.199Z,39.70
2023-04-02T01:49:00.211Z,40.32
2023-04-02T01:51:31.737Z,39.68
2023-04-02T01:54:02.938Z,39.13
2023-04-02T01:56:31.268Z,39.10
2023-04-02T01:58:59.833Z,39.91
2023-04-02T02:01:36.890Z,39.28
2023-04-02T02:04:04.668Z,39.85
2023-04-02T02:06:32.128Z,39.19
2023-04-02T02:09:03.992Z,40.05
2023-04-02T02:11:33.633Z,39.21
2023-04-02T02:14:05.171Z,39.54
2023-04-02T02:16:38.582Z,40.20
2023-04-02T02:19:06.221Z,40.17
2023-04-02T02:21:42.428Z,40.44
2023-04-02T02:24:19.934Z,39.65
2023-04-02T02:26:54.401Z,39.48
2023-04-02T02:29:27.313Z,39.21
2023-04-02T02:32:00.062Z,39.51
2023-04-02T02:34:37.213Z,39.57
2023-04-02T02:37:12.734Z,39.77
2023-04-02T02:39:45.036Z,39.33
2023-04-02T02:42:19.866Z,39.84
2023-04-02T02:44:50.783Z,39.37
2023-04-02T02:47:25.152Z,39.83
2023-04-02T02:49:58.996Z,39.27
2023-04-02T02:52:29.016Z,39.63
2023-04-02T02:55:01.351Z,39.30
2023-04-02T02:57:33.410Z,39.70
2023-04-02T03:00:03.421Z,39.46
2023-04-02T03:02:36.380Z,40.02
2023-04-02T03:05:04.528Z,39.26
2023-04-02T03:07:32.289Z,39.37
2023-04-02T03:10:07.090Z,39.25
2023-04-02T03:12:45.411Z,39.28
2023-04-02T03:15:21.760Z,39.24
2023-04-02T03:17:58.177Z,39.96
2023-04-02T03:20:35.361Z,39.25
2023-04-02T03:23:13.720Z,39.21
2023-04-02T03:25:49.450Z,39.31
2023-04-02T03:28:23.519Z,39.31
2023-04-02T03:30:58.853Z,39.50
2023-04-02T03:33:35.532Z,39.70
2023-04-02T03:36:16.326Z,39.18
2023-04-02T03:38:49.392Z,39.50
2023-04-02T03:41:21.515Z,39.76
2023-04-02T03:43:57.772Z,39.49
2023-04-02T03:46:31.642Z,39.95
2023-04-02T03:49:06.813Z,39.62
2023-04-02T03:51:40.953Z,39.96
2023-04-02T03:54:15.254Z,39.47
2023-04-02T03:56:46.577Z,39.91
2023-04-02T03:59:25.571Z,39.66
2023-04-02T04:01:59.920Z,39.33
2023-04-02T04:04:31.918Z,39.53
2023-04-02T04:07:01.696Z,39.64
2023-04-02T04:09:35.012Z,39.79
2023-04-02T04:12:14.870Z,39.66
2023-04-02T04:14:49.729Z,39.82
2023-04-02T04:17:25.331Z,39.98
2023-04-02T04:20:00.383Z,39.70
2023-04-02T04:22:29.536Z,40.25
2023-04-02T04:24:58.134Z,40.45
2023-04-02T04:27:33.674Z,40.55
2023-04-02T04:30:13.579Z,40.51
2023-04-02T04:32:48.713Z,40.31
2023-04-02T04:35:28.738Z,40.03
2023-04-02T04:38:00.134Z,40.29
2023-04-02T04:40:31.819Z,40.36
2023-04-02T04:43:06.312Z,40.64
2023-04-02T04:45:46.746Z,40.51
2023-04-02T04:48:20.548Z,40.32
2023-04-02T04:50:56.131Z,40.61
2023-04-02T04:53:26.272Z,40.39
2023-04-02T04:55:58.259Z,40.33
2023-04-02T04:58:36.320Z,40.54
2023-04-02T05:01:10.682Z,40.36
2023-04-02T05:03:45.303Z,40.44
2023-04-02T05:06:22.572Z,40.18
2023-04-02T05:08:55.741Z,40.88
2023-04-02T05:11:31.832Z,40.88
2023-04-02T05:14:05.413Z,40.83
2023-04-02T05:16:42.069Z,40.76
2023-04-02T05:19:17.025Z,41.06
2023-04-02T05:21:52.083Z,41.07
2023-04-02T05:24:43.897Z,40.58
2023-04-02T05:27:24.874Z,40.99
2023-04-02T05:30:00.788Z,40.85
2023-04-02T05:32:34.742Z,40.81
2023-04-02T05:35:03.314Z,40.96
2023-04-02T05:37:32.398Z,40.80
2023-04-02T05:40:13.690Z,41.05
2023-04-02T05:42:49.201Z,40.83
2023-04-02T05:45:27.117Z,41.04
2023-04-02T05:47:57.725Z,40.70
2023-04-02T05:50:28.841Z,40.79
2023-04-02T05:53:06.414Z,41.00
2023-04-02T05:55:54.333Z,41.55
2023-04-02T05:58:36.062Z,41.61
2023-04-02T06:01:21.232Z,41.81
2023-04-02T06:03:57.563Z,41.24
2023-04-02T06:06:43.752Z,41.82
2023-04-02T06:09:19.213Z,41.35
2023-04-02T06:11:52.296Z,41.41
2023-04-02T06:14:19.676Z,41.80
2023-04-02T06:16:47.592Z,41.58
2023-04-02T06:19:22.811Z,41.24
2023-04-02T06:21:57.890Z,41.43
2023-04-02T06:24:31.062Z,40.95
2023-04-02T06:27:04.093Z,41.28
2023-04-02T06:29:34.933Z,41.41
2023-04-02T06:32:02.947Z,41.23
2023-04-02T06:34:32.136Z,41.98
2023-04-02T06:37:02.378Z,41.61
2023-04-02T06:39:31.111Z,41.91
2023-04-02T06:42:04.397Z,41.71
2023-04-02T06:44:36.249Z,41.84
2023-04-02T06:47:13.197Z,41.94
2023-04-02T06:49:47.208Z,41.94
2023-04-02T06:52:23.258Z,41.90
2023-04-02T06:54:52.400Z,41.96
2023-04-02T06:57:19.629Z,42.62
2023-04-02T06:59:46.942Z,42.28
2023-04-02T07:02:26.991Z,41.97
2023-04-02T07:05:01.480Z,41.77
2023-04-02T07:07:28.761Z,42.92
2023-04-02T07:09:57.348Z,41.63
2023-04-02T07:12:25.801Z,41.03
2023-04-02T07:14:53.624Z,40.16
2023-04-02T07:17:21.243Z,40.48
2023-04-02T07:19:48.569Z,40.10
2023-04-02T07:22:16.350Z,40.03
2023-04-02T07:24:43.560Z,40.23
2023-04-02T07:27:13.391Z,39.75
2023-04-02T07:29:40.569Z,39.84
2023-04-02T07:32:07.826Z,39.95
2023-04-02T07:34:34.948Z,40.77
2023-04-02T07:37:02.113Z,41.20
2023-04-02T07:39:29.383Z,41.34
2023-04-02T07:41:58.575Z,42.04
2023-04-02T07:44:27.166Z,42.31
2023-04-02T07:46:55.096Z,42.01
2023-04-02T07:49:22.590Z,42.14
2023-04-02T07:51:51.483Z,42.72
2023-04-02T07:54:18.621Z,43.08
2023-04-02T07:56:46.000Z,42.90
2023-04-02T07:59:13.316Z,42.47
2023-04-02T08:01:41.853Z,42.89
2023-04-02T08:04:17.945Z,43.33
2023-04-02T08:06:45.631Z,42.94
2023-04-02T08:09:12.769Z,42.77
2023-04-02T08:11:39.912Z,42.85
2023-04-02T08:14:07.033Z,42.52
2023-04-02T08:16:49.544Z,42.29
2023-04-02T08:19:17.842Z,42.51
2023-04-02T08:21:45.933Z,42.74
2023-04-02T08:24:13.155Z,42.31
2023-04-02T08:26:40.325Z,42.21
2023-04-02T08:29:07.413Z,41.83
2023-04-02T08:31:34.507Z,42.70
2023-04-02T08:34:03.076Z,43.31
2023-04-02T08:36:34.795Z,42.45
2023-04-02T08:39:02.102Z,42.78
2023-04-02T08:41:29.294Z,42.61
2023-04-02T08:44:19.323Z,42.49
2023-04-02T08:46:52.553Z,42.01
2023-04-02T08:49:31.638Z,41.73
2023-04-02T08:52:00.014Z,42.33
2023-04-02T08:54:31.602Z,42.08
2023-04-02T08:57:05.016Z,41.93
2023-04-02T08:59:34.837Z,40.08
2023-04-02T09:02:23.777Z,41.90
2023-04-02T09:04:52.989Z,41.20
2023-04-02T09:07:20.357Z,41.11
2023-04-02T09:09:49.779Z,40.86
2023-04-02T09:12:19.972Z,41.79
2023-04-02T09:15:04.770Z,41.06
2023-04-02T09:17:42.787Z,40.96
2023-04-02T09:20:24.096Z,40.29
2023-04-02T09:22:52.872Z,39.66
2023-04-02T09:25:23.073Z,40.71
2023-04-02T09:27:53.251Z,41.27
2023-04-02T09:30:40.753Z,40.45
2023-04-02T09:33:08.091Z,40.22
2023-04-02T09:35:38.801Z,40.93
2023-04-02T09:38:20.155Z,40.87
2023-04-02T09:40:50.617Z,40.56
2023-04-02T09:43:20.596Z,40.85
2023-04-02T09:45:58.385Z,40.97
2023-04-02T09:48:28.858Z,41.22
2023-04-02T09:51:16.037Z,40.79
2023-04-02T09:53:45.242Z,40.91
2023-04-02T09:56:15.840Z,41.65
2023-04-02T09:58:45.393Z,41.68
2023-04-02T10:01:28.422Z,41.76
2023-04-02T10:03:56.385Z,41.38
2023-04-02T10:06:27.754Z,41.41
2023-04-02T10:08:55.713Z,41.20
2023-04-02T10:11:36.561Z,41.17
2023-04-02T10:14:18.151Z,41.43
2023-04-02T10:16:51.840Z,41.27
2023-04-02T10:19:29.254Z,41.95
2023-04-02T10:22:02.610Z,42.84
2023-04-02T10:24:29.850Z,41.98
2023-04-02T10:27:11.593Z,41.56
2023-04-02T10:29:58.672Z,40.83
2023-04-02T10:32:34.988Z,41.97
2023-04-02T10:35:10.132Z,43.07
2023-04-02T10:38:09.624Z,42.36
2023-04-02T10:40:42.741Z,42.95
2023-04-02T10:43:37.353Z,44.02
2023-04-02T10:46:13.379Z,42.85
2023-04-02T10:48:51.518Z,44.56
2023-04-02T10:51:35.499Z,44.63
2023-04-02T10:54:23.571Z,45.71
2023-04-02T10:56:53.901Z,45.36
2023-04-02T10:59:27.907Z,45.32
2023-04-02T11:02:00.628Z,46.03
2023-04-02T11:04:36.613Z,46.07
2023-04-02T11:07:14.354Z,45.60
2023-04-02T11:09:48.771Z,44.82
2023-04-02T11:12:25.742Z,46.61
2023-04-02T11:14:55.813Z,44.98
2023-04-02T11:17:25.191Z,46.11
2023-04-02T11:19:52.454Z,45.65
2023-04-02T11:22:22.684Z,45.84
2023-04-02T11:24:54.113Z,44.55
2023-04-02T11:27:26.862Z,45.47
2023-04-02T11:30:06.778Z,45.94
2023-04-02T11:32:39.920Z,44.26
2023-04-02T11:35:36.583Z,44.30
2023-04-02T11:38:52.396Z,44.86
2023-04-02T11:42:04.598Z,44.79
2023-04-02T11:44:33.240Z,44.89
2023-04-02T11:47:18.037Z,45.85
2023-04-02T11:50:26.716Z,45.97
2023-04-02T11:52:57.592Z,46.45
2023-04-02T11:55:30.641Z,45.07
2023-04-02T11:58:23.174Z,45.43
2023-04-02T12:01:54.432Z,45.94
2023-04-02T12:04:49.533Z,45.91
2023-04-02T12:07:50.233Z,46.07
2023-04-02T12:10:20.337Z,45.61
2023-04-02T12:12:47.693Z,45.24
2023-04-02T12:15:43.392Z,46.76
2023-04-02T12:18:23.035Z,46.54
2023-04-02T12:20:52.822Z,47.66
2023-04-02T12:23:24.290Z,46.66
2023-04-02T12:25:57.191Z,47.22
2023-04-02T12:28:25.515Z,48.44
2023-04-02T12:31:04.739Z,47.61
2023-04-02T12:33:36.347Z,47.63
2023-04-02T12:36:05.981Z,47.15
2023-04-02T12:38:36.783Z,48.35
2023-04-02T12:41:06.748Z,48.04
2023-04-02T12:43:36.093Z,48.22
2023-04-02T12:46:06.756Z,48.07
2023-04-02T12:48:36.732Z,47.98
2023-04-02T12:51:05.029Z,47.43
2023-04-02T12:53:39.235Z,47.06
2023-04-02T12:56:07.932Z,46.29
2023-04-02T12:58:38.251Z,46.90
2023-04-02T13:01:15.800Z,45.06
2023-04-02T13:03:44.835Z,45.72
2023-04-02T13:06:24.910Z,44.74
2023-04-02T13:08:52.449Z,44.29
2023-04-02T13:11:20.657Z,44.26
2023-04-02T13:13:48.692Z,46.37
2023-04-02T13:16:28.615Z,45.63
2023-04-02T13:19:21.200Z,45.32
2023-04-02T13:21:48.469Z,45.04
2023-04-02T13:24:20.140Z,45.21
2023-04-02T13:26:47.945Z,46.20
2023-04-02T13:29:21.284Z,45.02
2023-04-02T13:31:48.798Z,46.22
2023-04-02T13:34:17.562Z,46.67
2023-04-02T13:36:44.923Z,45.64
2023-04-02T13:39:12.153Z,44.29
2023-04-02T13:41:43.343Z,43.62
2023-04-02T13:44:23.213Z,44.70
2023-04-02T13:46:51.357Z,44.82
2023-04-02T13:49:20.256Z,45.12
2023-04-02T13:51:49.342Z,45.45
2023-04-02T13:54:25.039Z,45.07
2023-04-02T13:56:52.809Z,43.75
2023-04-02T13:59:20.374Z,44.00
2023-04-02T14:01:49.745Z,43.39
2023-04-02T14:04:22.072Z,43.94
2023-04-02T14:07:28.133Z,43.35
2023-04-02T14:10:05.175Z,42.79
2023-04-02T14:12:50.934Z,56.91
2023-04-02T14:15:33.150Z,54.28
2023-04-02T14:18:18.440Z,41.12
2023-04-02T14:20:58.952Z,41.63
2023-04-02T14:23:43.966Z,41.84
2023-04-02T14:26:23.821Z,41.71
2023-04-02T14:29:05.624Z,41.93
2023-04-02T14:31:39.380Z,43.31
2023-04-02T14:34:17.148Z,42.85
2023-04-02T14:37:00.618Z,42.61
2023-04-02T14:39:41.422Z,41.39
2023-04-02T14:42:16.119Z,42.04
2023-04-02T14:44:51.437Z,41.65
2023-04-02T14:47:25.868Z,42.57
2023-04-02T14:49:59.215Z,42.13
2023-04-02T14:52:34.112Z,41.21
2023-04-02T14:55:05.574Z,42.22
2023-04-02T14:57:38.895Z,42.93
2023-04-02T15:00:16.135Z,42.34
2023-04-02T15:02:47.254Z,41.72
2023-04-02T15:05:18.857Z,42.55
2023-04-02T15:07:52.472Z,43.87
2023-04-02T15:10:26.436Z,43.10
2023-04-02T15:12:56.792Z,43.68
2023-04-02T15:15:40.762Z,43.81
2023-04-02T15:18:13.847Z,43.45
2023-04-02T15:20:54.842Z,43.08
2023-04-02T15:23:43.076Z,43.51
2023-04-02T15:26:22.405Z,42.88
2023-04-02T15:29:03.776Z,44.39
2023-04-02T15:31:34.126Z,45.07
2023-04-02T15:34:21.251Z,45.43
2023-04-02T15:37:01.612Z,45.00
2023-04-02T15:39:51.854Z,45.89
2023-04-02T15:42:24.070Z,45.63
2023-04-02T15:45:25.905Z,44.62
2023-04-02T15:48:08.446Z,43.37
2023-04-02T15:50:59.090Z,43.91
2023-04-02T15:53:39.430Z,43.52
2023-04-02T15:56:24.022Z,44.02
2023-04-02T15:59:32.994Z,43.92
2023-04-02T16:02:22.514Z,42.99
2023-04-02T16:05:02.481Z,43.99
2023-04-02T16:07:51.912Z,43.31
2023-04-02T16:10:39.988Z,43.87
2023-04-02T16:13:18.157Z,43.14
2023-04-02T16:15:52.853Z,44.80
2023-04-02T16:18:33.198Z,44.68
2023-04-02T16:21:02.982Z,44.39
2023-04-02T16:23:35.295Z,45.00
2023-04-02T16:26:22.286Z,43.78
2023-04-02T16:29:07.496Z,44.06
2023-04-02T16:31:50.367Z,44.03
2023-04-02T16:34:32.396Z,44.02
2023-04-02T16:37:08.254Z,44.00
2023-04-02T16:39:46.873Z,44.42
2023-04-02T16:42:30.374Z,44.40
2023-04-02T16:45:18.052Z,44.96
2023-04-02T16:47:59.748Z,44.67
2023-04-02T16:50:41.202Z,44.76
2023-04-02T16:53:24.758Z,45.15
2023-04-02T16:56:14.614Z,45.33
2023-04-02T16:58:55.014Z,44.87
2023-04-02T17:01:34.003Z,44.65
2023-04-02T17:04:29.533Z,45.20
2023-04-02T17:07:10.273Z,46.02
2023-04-02T17:09:49.056Z,44.88
2023-04-02T17:12:21.612Z,44.87
2023-04-02T17:14:52.951Z,45.13
2023-04-02T17:17:23.895Z,44.76
2023-04-02T17:19:58.351Z,45.58
2023-04-02T17:22:25.713Z,58.08
2023-04-02T17:24:58.374Z,54.24
2023-04-02T17:27:32.735Z,41.28
2023-04-02T17:30:06.871Z,41.68
2023-04-02T17:32:35.642Z,41.36
2023-04-02T17:35:18.444Z,43.01
2023-04-02T17:37:55.115Z,46.77
2023-04-02T17:40:31.733Z,49.07
2023-04-02T17:43:10.422Z,41.53
2023-04-02T17:45:48.158Z,41.71
2023-04-02T17:48:27.960Z,42.01
2023-04-02T17:51:09.617Z,43.87
2023-04-02T17:54:00.122Z,43.53
2023-04-02T17:56:47.897Z,43.69
2023-04-02T17:59:35.094Z,45.07
2023-04-02T18:02:30.288Z,44.20
2023-04-02T18:05:16.214Z,44.25
2023-04-02T18:07:55.682Z,45.06
2023-04-02T18:10:32.217Z,44.34
2023-04-02T18:13:14.834Z,44.52
2023-04-02T18:15:56.497Z,45.12
2023-04-02T18:19:00.991Z,44.39
2023-04-02T18:21:37.040Z,44.59
2023-04-02T18:24:24.235Z,45.15
2023-04-02T18:27:07.752Z,45.44
2023-04-02T18:29:49.115Z,45.29
2023-04-02T18:32:49.380Z,44.86
2023-04-02T18:35:25.515Z,45.46
2023-04-02T18:38:13.657Z,45.67
2023-04-02T18:40:56.057Z,45.90
2023-04-02T18:43:37.756Z,45.68
2023-04-02T18:46:15.644Z,45.70
2023-04-02T18:48:55.957Z,46.06
2023-04-02T18:51:25.270Z,45.99
2023-04-02T18:54:03.058Z,45.91
2023-04-02T18:56:32.446Z,45.70
2023-04-02T18:59:14.483Z,45.63
2023-04-02T19:01:47.633Z,45.78
2023-04-02T19:04:20.717Z,45.84
2023-04-02T19:06:54.816Z,45.93
2023-04-02T19:09:31.857Z,45.98
2023-04-02T19:11:59.356Z,45.90
2023-04-02T19:14:26.501Z,46.08
2023-04-02T19:17:10.390Z,45.89
2023-04-02T19:19:50.055Z,45.94
2023-04-02T19:22:33.812Z,45.77
2023-04-02T19:25:21.077Z,45.97
2023-04-02T19:28:05.515Z,46.33
2023-04-02T19:30:49.693Z,46.18
2023-04-02T19:33:39.947Z,46.25
2023-04-02T19:36:26.322Z,46.53
2023-04-02T19:39:17.480Z,46.60
2023-04-02T19:41:52.233Z,46.37
2023-04-02T19:44:21.105Z,46.38
2023-04-02T19:46:48.923Z,46.28
2023-04-02T19:49:21.113Z,46.24
2023-04-02T19:51:48.770Z,46.67
2023-04-02T19:54:16.235Z,46.84
2023-04-02T19:56:43.623Z,46.38
2023-04-02T19:59:17.985Z,46.66
2023-04-02T20:01:46.099Z,46.69
2023-04-02T20:04:13.658Z,46.41
2023-04-02T20:06:40.977Z,58.83
2023-04-02T20:09:08.511Z,48.21
2023-04-02T20:11:37.274Z,42.56
2023-04-02T20:14:05.588Z,40.42
2023-04-02T20:16:34.579Z,38.78
2023-04-02T20:19:01.779Z,36.15
2023-04-02T20:21:29.795Z,38.12
2023-04-02T20:23:56.995Z,40.07
2023-04-02T20:26:24.236Z,41.12
2023-04-02T20:28:51.812Z,42.35
2023-04-02T20:31:19.563Z,43.05
2023-04-02T20:33:48.455Z,43.87
2023-04-02T20:36:17.505Z,44.56
2023-04-02T20:38:44.637Z,45.21
2023-04-02T20:41:12.052Z,45.41
2023-04-02T20:43:39.221Z,45.93
2023-04-02T20:46:08.240Z,46.08
2023-04-02T20:48:36.919Z,46.35
2023-04-02T20:51:08.000Z,46.70
2023-04-02T20:53:37.580Z,46.53
2023-04-02T20:56:06.537Z,46.72
2023-04-02T20:58:34.797Z,46.93
2023-04-02T21:01:15.046Z,46.97
2023-04-02T21:03:42.405Z,46.54
2023-04-02T21:06:17.646Z,46.53
2023-04-02T21:08:46.020Z,46.51
2023-04-02T21:11:14.773Z,47.21
2023-04-02T21:13:42.945Z,46.85
2023-04-02T21:16:15.420Z,47.22
2023-04-02T21:18:42.804Z,47.31
2023-04-02T21:21:12.339Z,47.81
2023-04-02T21:23:42.412Z,47.61
2023-04-02T21:26:13.576Z,47.18
2023-04-02T21:28:41.556Z,47.02
2023-04-02T21:31:11.050Z,47.37
2023-04-02T21:33:41.562Z,47.39
2023-04-02T21:36:11.572Z,46.76
2023-04-02T21:38:44.240Z,47.13
2023-04-02T21:41:17.246Z,46.74
2023-04-02T21:43:45.488Z,47.59
2023-04-02T21:46:12.770Z,47.28
2023-04-02T21:48:41.050Z,47.53
2023-04-02T21:51:10.735Z,47.37
2023-04-02T21:53:39.129Z,47.38
2023-04-02T21:56:11.253Z,47.12
2023-04-02T21:58:38.387Z,46.97
2023-04-02T22:01:08.996Z,47.21
2023-04-02T22:03:39.337Z,46.30
2023-04-02T22:06:08.893Z,46.58
2023-04-02T22:08:38.130Z,45.85
2023-04-02T22:11:09.209Z,45.25
2023-04-02T22:13:37.390Z,45.97
2023-04-02T22:16:07.985Z,45.49
2023-04-02T22:18:35.188Z,45.44
2023-04-02T22:21:02.343Z,45.67
2023-04-02T22:23:30.310Z,45.72
2023-04-02T22:25:59.231Z,45.91
2023-04-02T22:28:28.770Z,46.22
2023-04-02T22:31:03.484Z,45.64
2023-04-02T22:33:30.869Z,45.25
2023-04-02T22:35:58.870Z,45.30
2023-04-02T22:38:27.028Z,45.14
2023-04-02T22:41:03.630Z,45.78
2023-04-02T22:43:32.247Z,45.65
2023-04-02T22:45:59.795Z,46.60
2023-04-02T22:48:27.456Z,47.13
2023-04-02T22:50:54.891Z,47.28
2023-04-02T22:53:22.026Z,47.47
2023-04-02T22:55:49.906Z,46.67
2023-04-02T22:58:17.164Z,47.07
2023-04-02T23:00:47.118Z,47.14
2023-04-02T23:03:14.349Z,46.27
2023-04-02T23:05:41.458Z,46.44
2023-04-02T23:08:08.547Z,47.10
2023-04-02T23:10:36.134Z,46.82
2023-04-02T23:13:03.488Z,46.43
2023-04-02T23:15:30.669Z,45.67
2023-04-02T23:17:59.282Z,45.10
2023-04-02T23:20:26.511Z,45.39
2023-04-02T23:22:53.759Z,46.34
2023-04-02T23:25:20.950Z,45.30
2023-04-02T23:27:48.512Z,44.52
2023-04-02T23:30:15.816Z,44.91
2023-04-02T23:32:42.990Z,44.90
2023-04-02T23:35:11.725Z,45.01
2023-04-02T23:37:38.890Z,44.18
2023-04-02T23:40:07.997Z,44.07
2023-04-02T23:42:35.113Z,43.87
2023-04-02T23:45:02.292Z,44.84
2023-04-02T23:47:29.411Z,45.14
2023-04-02T23:49:56.631Z,44.39
2023-04-02T23:52:25.611Z,45.42
2023-04-02T23:54:52.749Z,44.92
2023-04-02T23:57:19.956Z,45.48
2023-04-02T23:59:47.279Z,46.02
